sensor_id;sensor_type;location;lat;lon;timestamp;P1;P2;P0
65360;PMS5003;51958;55.018;73.536;2023-04-19T16:48:47;21.50;20.50;12.00
65360;PMS5003;51958;55.018;73.536;2023-04-19T16:51:48;22.00;21.00;13.00
65360;PMS5003;51958;55.018;73.536;2023-04-19T16:55:00;21.00;20.00;13.00
65360;PMS5003;51958;55.018;73.536;2023-04-19T16:58:04;18.00;18.00;11.00
65360;PMS5003;51958;55.018;73.536;2023-04-19T17:01:10;20.67;19.00;12.67
65360;PMS5003;51958;55.018;73.536;2023-04-19T17:04:11;20.00;19.00;13.00
65360;PMS5003;51958;55.018;73.536;2023-04-19T17:07:14;17.00;15.67;10.00
65360;PMS5003;51958;55.018;73.536;2023-04-19T17:10:16;19.33;16.67;10.00
65360;PMS5003;51958;55.018;73.536;2023-04-19T17:13:17;23.00;18.33;11.33
65360;PMS5003;51958;55.018;73.536;2023-04-19T17:16:18;20.00;19.00;11.67
65360;PMS5003;51958;55.018;73.536;2023-04-19T17:19:20;18.33;17.00;11.00
65360;PMS5003;51958;55.018;73.536;2023-04-19T17:22:22;20.00;17.00;11.33
65360;PMS5003;51958;55.018;73.536;2023-04-19T17:25:23;24.33;20.00;12.67
65360;PMS5003;51958;55.018;73.536;2023-04-19T17:28:24;22.00;20.33;12.00
65360;PMS5003;51958;55.018;73.536;2023-04-19T17:31:25;21.00;19.67;11.33
65360;PMS5003;51958;55.018;73.536;2023-04-19T17:34:27;23.00;20.33;13.33
65360;PMS5003;51958;55.018;73.536;2023-04-19T17:37:29;23.00;20.00;13.33
65360;PMS5003;51958;55.018;73.536;2023-04-19T17:40:40;23.00;21.00;14.00
65360;PMS5003;51958;55.018;73.536;2023-04-19T17:43:47;26.00;21.67;14.33
65360;PMS5003;51958;55.018;73.536;2023-04-19T17:46:53;25.67;21.00;14.00
65360;PMS5003;51958;55.018;73.536;2023-04-19T17:50:03;26.00;22.00;14.00
65360;PMS5003;51958;55.018;73.536;2023-04-19T17:53:04;21.00;20.00;13.00
65360;PMS5003;51958;55.018;73.536;2023-04-19T17:56:05;21.75;20.00;13.00
65360;PMS5003;51958;55.018;73.536;2023-04-19T17:59:06;33.00;25.67;14.33
65360;PMS5003;51958;55.018;73.536;2023-04-19T18:02:08;50.33;37.67;21.67
65360;PMS5003;51958;55.018;73.536;2023-04-19T18:05:19;77.67;65.33;34.00
65360;PMS5003;51958;55.018;73.536;2023-04-19T18:08:20;84.33;74.00;40.00
65360;PMS5003;51958;55.018;73.536;2023-04-19T18:11:21;81.00;70.00;38.00
65360;PMS5003;51958;55.018;73.536;2023-04-19T18:14:22;74.00;65.67;37.00
65360;PMS5003;51958;55.018;73.536;2023-04-19T18:17:34;55.33;45.67;27.67
65360;PMS5003;51958;55.018;73.536;2023-04-19T18:20:36;43.33;33.33;21.00
65360;PMS5003;51958;55.018;73.536;2023-04-19T18:23:37;34.00;27.33;17.67
65360;PMS5003;51958;55.018;73.536;2023-04-19T18:26:41;26.33;23.00;14.00
65360;PMS5003;51958;55.018;73.536;2023-04-19T18:29:42;25.33;21.00;14.00
65360;PMS5003;51958;55.018;73.536;2023-04-19T18:32:43;25.00;20.00;13.00
65360;PMS5003;51958;55.018;73.536;2023-04-19T18:35:44;22.67;18.00;13.00
65360;PMS5003;51958;55.018;73.536;2023-04-19T18:38:45;17.00;15.67;11.00
65360;PMS5003;51958;55.018;73.536;2023-04-19T18:41:46;17.00;15.00;9.00
65360;PMS5003;51958;55.018;73.536;2023-04-19T18:44:57;20.00;17.00;10.00
65360;PMS5003;51958;55.018;73.536;2023-04-19T18:47:59;19.33;16.00;9.00
65360;PMS5003;51958;55.018;73.536;2023-04-19T18:51:00;19.00;16.00;8.00
65360;PMS5003;51958;55.018;73.536;2023-04-19T18:54:02;20.00;17.33;11.00
65360;PMS5003;51958;55.018;73.536;2023-04-19T18:57:08;20.00;17.33;11.00
65360;PMS5003;51958;55.018;73.536;2023-04-19T19:00:10;20.00;19.00;12.00
65360;PMS5003;51958;55.018;73.536;2023-04-19T19:03:12;20.00;18.33;12.00
65360;PMS5003;51958;55.018;73.536;2023-04-19T19:06:13;20.00;18.00;13.00
65360;PMS5003;51958;55.018;73.536;2023-04-19T19:09:15;19.33;17.00;12.00
65360;PMS5003;51958;55.018;73.536;2023-04-19T19:12:16;22.33;20.67;11.67
65360;PMS5003;51958;55.018;73.536;2023-04-19T19:15:17;24.00;22.33;14.00
65360;PMS5003;51958;55.018;73.536;2023-04-19T19:18:18;21.33;20.67;12.00
65360;PMS5003;51958;55.018;73.536;2023-04-19T19:21:19;21.00;20.00;12.00
65360;PMS5003;51958;55.018;73.536;2023-04-19T19:24:21;21.00;19.00;12.00
65360;PMS5003;51958;55.018;73.536;2023-04-19T19:27:22;19.00;17.00;10.33
65360;PMS5003;51958;55.018;73.536;2023-04-19T19:30:23;17.00;16.33;10.00
65360;PMS5003;51958;55.018;73.536;2023-04-19T19:33:25;18.00;16.50;9.00
65360;PMS5003;51958;55.018;73.536;2023-04-19T19:36:27;18.00;17.00;8.00
65360;PMS5003;51958;55.018;73.536;2023-04-19T19:39:28;19.00;16.50;10.00
65360;PMS5003;51958;55.018;73.536;2023-04-19T19:42:29;19.50;16.50;11.00
65360;PMS5003;51958;55.018;73.536;2023-04-19T19:45:30;17.00;17.00;11.00
65360;PMS5003;51958;55.018;73.536;2023-04-19T19:48:31;19.50;17.00;11.00
65360;PMS5003;51958;55.018;73.536;2023-04-19T19:51:37;19.00;18.00;9.00
65360;PMS5003;51958;55.018;73.536;2023-04-19T19:54:38;19.00;19.00;9.00
65360;PMS5003;51958;55.018;73.536;2023-04-19T19:57:49;20.00;19.00;11.00
65360;PMS5003;51958;55.018;73.536;2023-04-19T20:00:50;22.00;20.00;13.00
65360;PMS5003;51958;55.018;73.536;2023-04-19T20:03:53;21.00;19.00;13.50
65360;PMS5003;51958;55.018;73.536;2023-04-19T20:06:55;19.00;17.50;13.00
65360;PMS5003;51958;55.018;73.536;2023-04-19T20:09:56;16.00;16.00;12.00
65360;PMS5003;51958;55.018;73.536;2023-04-19T20:13:07;21.00;18.50;12.00
65360;PMS5003;51958;55.018;73.536;2023-04-19T20:16:09;20.50;17.00;10.00
65360;PMS5003;51958;55.018;73.536;2023-04-19T20:19:20;19.00;17.00;10.50
65360;PMS5003;51958;55.018;73.536;2023-04-19T20:22:21;17.50;16.00;10.00
65360;PMS5003;51958;55.018;73.536;2023-04-19T20:25:27;18.00;16.00;8.00
65360;PMS5003;51958;55.018;73.536;2023-04-19T20:28:30;17.00;15.50;7.00
65360;PMS5003;51958;55.018;73.536;2023-04-19T20:31:32;16.00;15.00;7.00
65360;PMS5003;51958;55.018;73.536;2023-04-19T20:34:33;16.00;15.00;8.00
65360;PMS5003;51958;55.018;73.536;2023-04-19T20:37:35;18.33;17.00;10.00
65360;PMS5003;51958;55.018;73.536;2023-04-19T20:40:53;19.50;17.00;10.00
65360;PMS5003;51958;55.018;73.536;2023-04-19T20:43:54;21.00;19.00;10.00
65360;PMS5003;51958;55.018;73.536;2023-04-19T20:46:56;23.67;21.00;13.00
65360;PMS5003;51958;55.018;73.536;2023-04-19T20:50:03;23.50;20.00;13.00
65360;PMS5003;51958;55.018;73.536;2023-04-19T20:53:04;22.50;19.00;13.00
65360;PMS5003;51958;55.018;73.536;2023-04-19T20:56:05;22.00;20.00;13.00
65360;PMS5003;51958;55.018;73.536;2023-04-19T20:59:06;24.00;20.00;13.00
65360;PMS5003;51958;55.018;73.536;2023-04-19T21:02:07;22.00;18.00;10.00
65360;PMS5003;51958;55.018;73.536;2023-04-19T21:05:09;22.50;20.00;10.00
65360;PMS5003;51958;55.018;73.536;2023-04-19T21:08:12;24.00;21.00;11.00
65360;PMS5003;51958;55.018;73.536;2023-04-19T21:11:25;21.00;20.00;13.00
65360;PMS5003;51958;55.018;73.536;2023-04-19T21:14:32;21.00;20.00;13.00
65360;PMS5003;51958;55.018;73.536;2023-04-19T21:17:38;21.33;20.00;13.00
65360;PMS5003;51958;55.018;73.536;2023-04-19T21:20:51;22.50;20.00;13.00
65360;PMS5003;51958;55.018;73.536;2023-04-19T21:23:52;24.33;21.00;13.00
65360;PMS5003;51958;55.018;73.536;2023-04-19T21:26:53;25.00;22.50;14.00
65360;PMS5003;51958;55.018;73.536;2023-04-19T21:29:54;21.50;20.50;13.00
65360;PMS5003;51958;55.018;73.536;2023-04-19T21:32:55;20.33;19.00;13.00
65360;PMS5003;51958;55.018;73.536;2023-04-19T21:35:56;20.00;17.00;12.00
65360;PMS5003;51958;55.018;73.536;2023-04-19T21:39:02;20.00;18.00;12.00
65360;PMS5003;51958;55.018;73.536;2023-04-19T21:42:03;22.50;20.00;12.00
65360;PMS5003;51958;55.018;73.536;2023-04-19T21:45:14;25.00;20.00;12.00
65360;PMS5003;51958;55.018;73.536;2023-04-19T21:48:15;21.00;18.00;12.00
65360;PMS5003;51958;55.018;73.536;2023-04-19T21:51:16;20.00;17.00;12.00
65360;PMS5003;51958;55.018;73.536;2023-04-19T21:54:17;20.50;18.00;11.00
65360;PMS5003;51958;55.018;73.536;2023-04-19T21:57:18;20.00;17.00;11.00
65360;PMS5003;51958;55.018;73.536;2023-04-19T22:00:34;18.67;17.33;10.00
65360;PMS5003;51958;55.018;73.536;2023-04-19T22:03:45;20.00;17.00;10.00
65360;PMS5003;51958;55.018;73.536;2023-04-19T22:06:47;18.00;15.00;9.00
65360;PMS5003;51958;55.018;73.536;2023-04-19T22:09:49;18.00;15.00;8.00
65360;PMS5003;51958;55.018;73.536;2023-04-19T22:12:51;17.00;15.00;8.00
65360;PMS5003;51958;55.018;73.536;2023-04-19T22:15:53;16.00;15.00;7.00
65360;PMS5003;51958;55.018;73.536;2023-04-19T22:18:56;15.00;15.00;7.00
65360;PMS5003;51958;55.018;73.536;2023-04-19T22:21:59;15.00;15.00;5.00
65360;PMS5003;51958;55.018;73.536;2023-04-19T22:25:01;13.00;13.00;6.67
65360;PMS5003;51958;55.018;73.536;2023-04-19T22:28:03;14.00;12.33;6.00
65360;PMS5003;51958;55.018;73.536;2023-04-19T22:31:05;15.00;13.00;7.00
65360;PMS5003;51958;55.018;73.536;2023-04-19T22:34:10;16.00;15.00;7.33
65360;PMS5003;51958;55.018;73.536;2023-04-19T22:37:11;16.00;16.00;8.00
65360;PMS5003;51958;55.018;73.536;2023-04-19T22:40:11;15.00;14.00;7.00
65360;PMS5003;51958;55.018;73.536;2023-04-19T22:43:13;15.00;15.00;7.00
65360;PMS5003;51958;55.018;73.536;2023-04-19T22:46:19;14.00;12.33;6.00
65360;PMS5003;51958;55.018;73.536;2023-04-19T22:49:23;15.00;13.00;7.00
65360;PMS5003;51958;55.018;73.536;2023-04-19T22:52:29;16.00;13.00;6.33
65360;PMS5003;51958;55.018;73.536;2023-04-19T22:55:30;16.00;15.00;7.00
65360;PMS5003;51958;55.018;73.536;2023-04-19T22:58:31;16.00;14.00;6.33
65360;PMS5003;51958;55.018;73.536;2023-04-19T23:01:32;15.00;13.00;6.00
65360;PMS5003;51958;55.018;73.536;2023-04-19T23:04:33;13.67;12.33;6.33
65360;PMS5003;51958;55.018;73.536;2023-04-19T23:07:34;16.33;13.00;5.33
65360;PMS5003;51958;55.018;73.536;2023-04-19T23:10:35;17.33;15.00;6.00
65360;PMS5003;51958;55.018;73.536;2023-04-19T23:13:37;15.00;14.00;6.00
65360;PMS5003;51958;55.018;73.536;2023-04-19T23:16:41;15.00;13.00;6.00
65360;PMS5003;51958;55.018;73.536;2023-04-19T23:19:51;15.00;13.00;5.00
65360;PMS5003;51958;55.018;73.536;2023-04-19T23:22:58;13.00;12.00;5.00
65360;PMS5003;51958;55.018;73.536;2023-04-19T23:25:59;15.33;12.33;6.33
65360;PMS5003;51958;55.018;73.536;2023-04-19T23:29:06;17.00;15.00;6.50
65360;PMS5003;51958;55.018;73.536;2023-04-19T23:32:07;16.67;15.00;7.00
65360;PMS5003;51958;55.018;73.536;2023-04-19T23:35:09;15.00;14.67;7.00
65360;PMS5003;51958;55.018;73.536;2023-04-19T23:38:16;18.00;16.00;10.00
65360;PMS5003;51958;55.018;73.536;2023-04-19T23:41:28;17.00;16.67;10.00
65360;PMS5003;51958;55.018;73.536;2023-04-19T23:44:29;18.67;17.00;10.00
65360;PMS5003;51958;55.018;73.536;2023-04-19T23:47:30;15.00;15.00;8.00
65360;PMS5003;51958;55.018;73.536;2023-04-19T23:50:31;15.00;15.00;8.00
65360;PMS5003;51958;55.018;73.536;2023-04-19T23:53:32;15.67;14.33;7.33
65360;PMS5003;51958;55.018;73.536;2023-04-19T23:56:38;17.00;15.00;9.00
65360;PMS5003;51958;55.018;73.536;2023-04-19T23:59:45;16.00;16.00;10.00
